createdAt,value
2023-06-04T00:00:51.518Z,31.98
2023-06-04T00:01:54.155Z,33.19
2023-06-04T00:02:56.866Z,33.78
2023-06-04T00:03:59.634Z,33.60
2023-06-04T00:05:02.344Z,33.36
2023-06-04T00:06:04.986Z,34.60
2023-06-04T00:07:07.732Z,33.21
2023-06-04T00:08:10.329Z,34.30
2023-06-04T00:09:13.062Z,34.24
2023-06-04T00:10:15.878Z,35.16
2023-06-04T00:11:18.574Z,35.07
2023-06-04T00:12:21.275Z,35.67
2023-06-04T00:13:23.889Z,36.22
2023-06-04T00:14:26.513Z,36.41
2023-06-04T00:15:29.150Z,36.19
2023-06-04T00:16:31.781Z,35.86
2023-06-04T00:17:34.578Z,35.94
2023-06-04T00:18:37.262Z,36.41
2023-06-04T00:19:42.721Z,36.11
2023-06-04T00:20:45.322Z,37.36
2023-06-04T00:21:48.125Z,36.55
2023-06-04T00:22:50.940Z,36.88
2023-06-04T00:23:53.585Z,37.74
2023-06-04T00:24:56.306Z,36.79
2023-06-04T00:25:58.963Z,37.36
2023-06-04T00:27:01.592Z,37.76
2023-06-04T00:28:04.462Z,39.44
2023-06-04T00:29:07.087Z,39.76
2023-06-04T00:30:10.241Z,38.55
2023-06-04T00:31:14.310Z,39.95
2023-06-04T00:32:17.065Z,40.37
2023-06-04T00:33:19.924Z,40.96
2023-06-04T00:34:23.115Z,41.12
2023-06-04T00:35:25.833Z,41.26
2023-06-04T00:36:28.469Z,41.55
2023-06-04T00:37:31.518Z,40.62
2023-06-04T00:38:34.382Z,40.95
2023-06-04T00:39:37.003Z,41.58
2023-06-04T00:40:39.624Z,41.57
2023-06-04T00:41:42.224Z,42.54
2023-06-04T00:42:46.704Z,42.23
2023-06-04T00:43:57.850Z,41.65
2023-06-04T00:45:00.677Z,41.70
2023-06-04T00:46:06.943Z,42.04
2023-06-04T00:47:09.582Z,42.71
2023-06-04T00:48:12.457Z,42.32
2023-06-04T00:49:15.454Z,42.24
2023-06-04T00:50:18.149Z,42.54
2023-06-04T00:51:22.671Z,42.89
2023-06-04T00:52:26.128Z,43.83
2023-06-04T00:53:28.910Z,43.80
2023-06-04T00:54:34.242Z,44.06
2023-06-04T00:55:36.996Z,44.12
2023-06-04T00:56:40.233Z,44.43
2023-06-04T00:57:42.842Z,44.72
2023-06-04T00:58:46.624Z,45.31
2023-06-04T00:59:49.763Z,45.17
2023-06-04T01:00:58.206Z,45.04
2023-06-04T01:02:06.250Z,45.11
2023-06-04T01:03:20.577Z,44.96
2023-06-04T01:04:46.344Z,45.86
2023-06-04T01:06:22.789Z,45.67
2023-06-04T01:07:29.132Z,46.47
2023-06-04T01:08:32.674Z,46.46
2023-06-04T01:09:35.670Z,46.64
2023-06-04T01:10:38.272Z,47.36
2023-06-04T01:11:42.014Z,46.16
2023-06-04T01:12:45.388Z,46.29
2023-06-04T01:13:48.564Z,47.89
2023-06-04T01:14:51.533Z,48.27
2023-06-04T01:15:54.141Z,48.43
2023-06-04T01:17:04.731Z,49.18
2023-06-04T01:18:08.615Z,48.65
2023-06-04T01:19:31.444Z,48.50
2023-06-04T01:20:36.732Z,48.53
2023-06-04T01:21:40.336Z,48.53
2023-06-04T01:22:45.465Z,48.94
2023-06-04T01:24:02.280Z,49.71
2023-06-04T01:25:07.214Z,49.07
2023-06-04T01:26:12.343Z,48.86
2023-06-04T01:27:17.564Z,48.46
2023-06-04T01:28:22.645Z,49.24
2023-06-04T01:29:25.747Z,48.89
2023-06-04T01:30:34.167Z,49.06
2023-06-04T01:31:37.363Z,49.84
2023-06-04T01:32:40.180Z,49.25
2023-06-04T01:33:42.905Z,49.51
2023-06-04T01:34:48.884Z,50.07
2023-06-04T01:35:51.850Z,50.48
2023-06-04T01:36:54.454Z,50.12
2023-06-04T01:37:57.419Z,50.27
2023-06-04T01:39:02.253Z,49.04
2023-06-04T01:40:06.672Z,50.80
2023-06-04T01:41:09.349Z,51.15
2023-06-04T01:42:12.271Z,51.59
2023-06-04T01:43:15.249Z,51.59
2023-06-04T01:44:17.905Z,50.28
2023-06-04T01:45:20.682Z,51.52
2023-06-04T01:46:23.832Z,52.03
2023-06-04T01:47:26.589Z,51.32
2023-06-04T01:48:29.287Z,52.59
2023-06-04T01:49:31.903Z,51.99
2023-06-04T01:50:34.756Z,51.32
2023-06-04T01:51:38.415Z,51.58
2023-06-04T01:52:42.237Z,52.52
2023-06-04T01:53:44.853Z,52.25
2023-06-04T01:54:47.503Z,53.06
2023-06-04T01:55:50.933Z,54.07
2023-06-04T01:56:53.514Z,53.30
2023-06-04T01:57:56.139Z,54.07
2023-06-04T01:58:58.804Z,53.28
2023-06-04T02:00:02.440Z,54.14
2023-06-04T02:01:05.344Z,53.00
2023-06-04T02:02:08.265Z,52.91
2023-06-04T02:03:12.237Z,52.93
2023-06-04T02:04:14.906Z,53.66
2023-06-04T02:05:18.070Z,54.18
2023-06-04T02:06:20.726Z,53.78
2023-06-04T02:07:23.330Z,53.68
2023-06-04T02:08:26.896Z,53.14
2023-06-04T02:09:29.243Z,53.03
2023-06-04T02:10:31.777Z,53.30
2023-06-04T02:11:34.454Z,53.42
2023-06-04T02:12:39.308Z,53.56
2023-06-04T02:13:42.034Z,53.52
2023-06-04T02:14:46.685Z,53.14
2023-06-04T02:15:49.310Z,53.55
2023-06-04T02:16:52.149Z,53.60
2023-06-04T02:18:00.739Z,52.94
2023-06-04T02:19:04.711Z,54.72
2023-06-04T02:20:11.327Z,54.24
2023-06-04T02:21:13.990Z,53.98
2023-06-04T02:22:17.236Z,53.71
2023-06-04T02:23:21.627Z,53.34
2023-06-04T02:24:24.379Z,53.57
2023-06-04T02:25:27.030Z,53.49
2023-06-04T02:26:29.724Z,53.77
2023-06-04T02:27:32.795Z,54.97
2023-06-04T02:28:35.445Z,55.14
2023-06-04T02:29:38.958Z,55.59
2023-06-04T02:30:42.188Z,54.85
2023-06-04T02:31:44.835Z,56.36
2023-06-04T02:32:51.610Z,56.73
2023-06-04T02:33:57.100Z,55.97
2023-06-04T02:34:59.734Z,56.42
2023-06-04T02:36:03.602Z,56.24
2023-06-04T02:37:07.216Z,57.15
2023-06-04T02:38:09.662Z,57.46
2023-06-04T02:39:12.251Z,57.46
2023-06-04T02:40:14.989Z,57.88
2023-06-04T02:41:17.592Z,56.83
2023-06-04T02:42:20.454Z,57.64
2023-06-04T02:43:23.114Z,57.89
2023-06-04T02:44:27.602Z,58.03
2023-06-04T02:45:30.459Z,58.10
2023-06-04T02:46:33.089Z,58.49
2023-06-04T02:47:36.051Z,58.18
2023-06-04T02:48:38.685Z,58.64
2023-06-04T02:49:41.440Z,58.59
2023-06-04T02:50:44.167Z,58.79
2023-06-04T02:51:47.225Z,58.71
2023-06-04T02:52:49.870Z,58.85
2023-06-04T02:53:53.697Z,58.15
2023-06-04T02:54:56.702Z,58.39
2023-06-04T02:55:59.310Z,58.92
2023-06-04T02:57:02.046Z,57.69
2023-06-04T02:58:04.683Z,58.63
2023-06-04T02:59:07.438Z,57.99
2023-06-04T03:00:14.706Z,58.90
2023-06-04T03:01:22.538Z,58.33
2023-06-04T03:02:25.217Z,57.75
2023-06-04T03:03:28.543Z,57.98
2023-06-04T03:04:35.805Z,58.29
2023-06-04T03:05:41.134Z,57.71
2023-06-04T03:06:47.760Z,57.48
2023-06-04T03:07:50.426Z,57.87
2023-06-04T03:08:53.311Z,59.03
2023-06-04T03:09:55.940Z,57.38
2023-06-04T03:10:58.562Z,58.44
2023-06-04T03:12:05.178Z,57.29
2023-06-04T03:13:07.768Z,57.91
2023-06-04T03:14:10.363Z,58.98
2023-06-04T03:15:13.579Z,58.89
2023-06-04T03:16:16.825Z,59.31
2023-06-04T03:17:19.517Z,59.45
2023-06-04T03:18:22.319Z,59.82
2023-06-04T03:19:24.913Z,60.28
2023-06-04T03:20:27.588Z,60.17
2023-06-04T03:21:30.773Z,59.35
2023-06-04T03:22:35.358Z,59.98
2023-06-04T03:23:37.968Z,59.29
2023-06-04T03:24:41.989Z,60.39
2023-06-04T03:25:44.620Z,60.03
2023-06-04T03:26:47.223Z,60.45
2023-06-04T03:27:49.872Z,60.21
2023-06-04T03:28:52.490Z,59.82
2023-06-04T03:29:55.093Z,60.59
2023-06-04T03:30:57.892Z,60.33
2023-06-04T03:32:01.344Z,60.41
2023-06-04T03:33:04.352Z,60.02
2023-06-04T03:34:07.143Z,60.43
2023-06-04T03:35:10.180Z,59.87
2023-06-04T03:36:12.870Z,60.20
2023-06-04T03:37:15.551Z,59.85
2023-06-04T03:38:18.245Z,60.05
2023-06-04T03:39:21.032Z,59.55
2023-06-04T03:40:23.643Z,59.99
2023-06-04T03:41:27.728Z,59.67
2023-06-04T03:42:30.318Z,60.24
2023-06-04T03:43:32.923Z,59.54
2023-06-04T03:44:35.585Z,59.59
2023-06-04T03:45:38.300Z,59.39
2023-06-04T03:46:40.959Z,59.94
2023-06-04T03:47:43.733Z,60.09
2023-06-04T03:48:46.373Z,59.95
2023-06-04T03:49:48.954Z,60.64
2023-06-04T03:50:52.286Z,61.10
2023-06-04T03:51:55.288Z,61.68
2023-06-04T03:52:58.087Z,60.76
2023-06-04T03:54:00.983Z,61.55
2023-06-04T03:55:04.567Z,60.37
2023-06-04T03:56:07.216Z,60.60
2023-06-04T03:57:09.842Z,59.88
2023-06-04T03:58:13.446Z,60.73
2023-06-04T03:59:15.825Z,58.41
2023-06-04T04:00:18.679Z,61.06
2023-06-04T04:01:21.381Z,61.13
2023-06-04T04:02:24.123Z,61.51
2023-06-04T04:03:26.960Z,60.33
2023-06-04T04:04:29.654Z,58.35
2023-06-04T04:05:33.031Z,56.46
2023-06-04T04:06:37.072Z,58.39
2023-06-04T04:07:39.759Z,57.62
2023-06-04T04:08:43.884Z,56.86
2023-06-04T04:09:46.691Z,57.45
2023-06-04T04:10:49.399Z,55.12
2023-06-04T04:11:52.184Z,58.07
2023-06-04T04:12:56.535Z,56.45
2023-06-04T04:13:59.839Z,56.33
2023-06-04T04:15:02.470Z,55.01
2023-06-04T04:16:05.208Z,55.67
2023-06-04T04:17:07.866Z,55.57
2023-06-04T04:18:12.255Z,56.22
2023-06-04T04:19:16.004Z,56.38
2023-06-04T04:20:19.720Z,55.88
2023-06-04T04:21:22.628Z,53.69
2023-06-04T04:22:25.408Z,56.08
2023-06-04T04:23:28.971Z,54.88
2023-06-04T04:24:31.366Z,57.00
2023-06-04T04:25:34.078Z,56.32
2023-06-04T04:26:36.704Z,56.37
2023-06-04T04:27:42.177Z,56.73
2023-06-04T04:28:45.325Z,55.13
2023-06-04T04:29:49.046Z,55.36
2023-06-04T04:30:52.540Z,55.72
2023-06-04T04:31:59.145Z,54.63
2023-06-04T04:33:01.945Z,53.43
2023-06-04T04:34:10.074Z,53.96
2023-06-04T04:35:12.825Z,52.84
2023-06-04T04:36:15.498Z,53.10
2023-06-04T04:37:18.106Z,54.03
2023-06-04T04:38:26.785Z,50.88
2023-06-04T04:39:29.411Z,51.41
2023-06-04T04:40:32.857Z,53.81
2023-06-04T04:41:35.484Z,54.38
2023-06-04T04:42:38.331Z,51.44
2023-06-04T04:43:41.258Z,52.68
2023-06-04T04:44:44.114Z,51.79
2023-06-04T04:45:46.705Z,51.32
2023-06-04T04:46:52.600Z,51.98
2023-06-04T04:47:55.308Z,51.97
2023-06-04T04:48:57.926Z,53.04
2023-06-04T04:50:00.629Z,51.65
2023-06-04T04:51:03.501Z,52.11
2023-06-04T04:52:06.345Z,52.89
2023-06-04T04:53:08.939Z,53.59
2023-06-04T04:54:11.549Z,53.05
2023-06-04T04:55:14.579Z,53.20
2023-06-04T04:56:17.212Z,52.21
2023-06-04T04:57:19.881Z,53.28
2023-06-04T04:58:22.656Z,52.83
2023-06-04T04:59:25.317Z,52.87
2023-06-04T05:00:29.108Z,52.42
2023-06-04T05:01:31.756Z,53.20
2023-06-04T05:02:34.678Z,53.20
2023-06-04T05:03:37.412Z,52.67
2023-06-04T05:04:40.127Z,53.16
2023-06-04T05:05:42.927Z,50.70
2023-06-04T05:06:45.511Z,52.05
2023-06-04T05:07:48.445Z,52.29
2023-06-04T05:08:51.118Z,52.78
2023-06-04T05:09:53.735Z,53.27
2023-06-04T05:10:56.453Z,52.21
2023-06-04T05:11:59.388Z,51.12
2023-06-04T05:13:06.649Z,53.37
2023-06-04T05:14:09.327Z,53.75
2023-06-04T05:15:14.065Z,54.10
2023-06-04T05:16:16.751Z,54.73
2023-06-04T05:17:23.230Z,53.47
2023-06-04T05:18:30.290Z,54.45
2023-06-04T05:19:34.547Z,54.53
2023-06-04T05:20:39.133Z,54.16
2023-06-04T05:21:41.733Z,54.53
2023-06-04T05:22:47.215Z,53.72
2023-06-04T05:23:50.058Z,54.86
2023-06-04T05:24:53.195Z,53.06
2023-06-04T05:25:56.072Z,54.36
2023-06-04T05:26:58.932Z,54.74
2023-06-04T05:28:01.574Z,56.13
2023-06-04T05:29:05.838Z,52.95
2023-06-04T05:30:11.057Z,55.85
2023-06-04T05:31:14.793Z,55.52
2023-06-04T05:32:17.767Z,56.19
2023-06-04T05:33:20.432Z,55.66
2023-06-04T05:34:23.146Z,56.23
2023-06-04T05:35:25.780Z,56.87
2023-06-04T05:36:28.448Z,57.28
2023-06-04T05:37:31.153Z,56.78
2023-06-04T05:38:33.754Z,56.42
2023-06-04T05:39:37.647Z,57.13
2023-06-04T05:40:40.261Z,57.45
2023-06-04T05:41:42.833Z,57.41
2023-06-04T05:42:45.436Z,57.70
2023-06-04T05:43:48.025Z,58.12
2023-06-04T05:44:50.668Z,58.28
2023-06-04T05:45:53.358Z,58.53
2023-06-04T05:46:56.061Z,58.43
2023-06-04T05:47:59.538Z,58.81
2023-06-04T05:49:04.070Z,58.23
2023-06-04T05:50:07.581Z,59.33
2023-06-04T05:51:10.298Z,55.87
2023-06-04T05:52:12.986Z,59.27
2023-06-04T05:53:15.604Z,60.12
2023-06-04T05:54:18.195Z,58.70
2023-06-04T05:55:21.448Z,59.29
2023-06-04T05:56:24.078Z,59.96
2023-06-04T05:57:26.720Z,60.54
2023-06-04T05:58:29.333Z,58.81
2023-06-04T05:59:31.924Z,57.82
2023-06-04T06:00:34.568Z,59.53
2023-06-04T06:01:37.973Z,59.69
2023-06-04T06:02:40.867Z,61.09
2023-06-04T06:03:43.918Z,59.10
2023-06-04T06:04:46.788Z,59.77
2023-06-04T06:05:49.473Z,59.64
2023-06-04T06:06:52.143Z,60.30
2023-06-04T06:07:54.908Z,59.43
2023-06-04T06:08:57.533Z,60.45
2023-06-04T06:10:00.165Z,59.08
2023-06-04T06:11:07.804Z,57.92
2023-06-04T06:12:12.083Z,60.60
2023-06-04T06:13:14.824Z,59.73
2023-06-04T06:14:17.440Z,59.11
2023-06-04T06:15:20.131Z,61.20
2023-06-04T06:16:22.864Z,61.51
2023-06-04T06:17:25.672Z,60.95
2023-06-04T06:18:28.295Z,58.55
2023-06-04T06:19:31.298Z,61.77
2023-06-04T06:20:33.968Z,59.75
2023-06-04T06:21:36.598Z,60.02
2023-06-04T06:22:39.249Z,56.26
2023-06-04T06:23:41.956Z,57.83
2023-06-04T06:24:44.687Z,58.64
2023-06-04T06:25:47.337Z,59.65
2023-06-04T06:26:50.037Z,61.81
2023-06-04T06:27:52.990Z,62.76
2023-06-04T06:28:55.664Z,61.35
2023-06-04T06:29:59.304Z,58.02
2023-06-04T06:31:02.018Z,56.81
2023-06-04T06:32:05.251Z,56.80
2023-06-04T06:33:08.190Z,55.81
2023-06-04T06:34:11.058Z,55.65
2023-06-04T06:35:13.646Z,56.08
2023-06-04T06:36:20.353Z,56.48
2023-06-04T06:37:23.025Z,56.53
2023-06-04T06:38:25.660Z,56.31
2023-06-04T06:39:28.271Z,56.45
2023-06-04T06:40:32.113Z,55.77
2023-06-04T06:41:34.840Z,55.91
2023-06-04T06:42:37.472Z,56.64
2023-06-04T06:43:40.065Z,56.27
2023-06-04T06:44:42.656Z,56.30
2023-06-04T06:45:45.386Z,56.45
2023-06-04T06:46:50.295Z,56.78
2023-06-04T06:47:53.020Z,56.52
2023-06-04T06:48:55.762Z,56.39
2023-06-04T06:49:58.414Z,55.80
2023-06-04T06:51:01.108Z,56.55
2023-06-04T06:52:03.984Z,56.37
2023-06-04T06:53:06.833Z,56.80
2023-06-04T06:54:12.332Z,56.16
2023-06-04T06:55:15.042Z,56.89
2023-06-04T06:56:17.683Z,56.89
2023-06-04T06:57:20.264Z,56.97
2023-06-04T06:58:24.944Z,57.27
2023-06-04T06:59:27.543Z,57.25
2023-06-04T07:00:30.280Z,57.53
2023-06-04T07:01:35.097Z,56.99
2023-06-04T07:02:37.799Z,57.20
2023-06-04T07:03:41.361Z,56.94
2023-06-04T07:04:43.956Z,57.35
2023-06-04T07:05:46.566Z,58.74
2023-06-04T07:06:49.227Z,58.39
2023-06-04T07:07:51.828Z,58.49
2023-06-04T07:08:55.610Z,58.63
2023-06-04T07:09:58.426Z,59.16
2023-06-04T07:11:05.201Z,58.55
2023-06-04T07:12:08.196Z,59.08
2023-06-04T07:13:10.837Z,59.19
2023-06-04T07:14:13.442Z,59.88
2023-06-04T07:15:16.219Z,59.61
2023-06-04T07:16:19.541Z,60.26
2023-06-04T07:17:22.218Z,60.49
2023-06-04T07:18:24.800Z,60.41
2023-06-04T07:19:27.494Z,60.42
2023-06-04T07:20:30.183Z,61.17
2023-06-04T07:21:32.780Z,60.59
2023-06-04T07:22:36.779Z,61.18
2023-06-04T07:23:39.414Z,61.74
2023-06-04T07:24:42.071Z,61.81
2023-06-04T07:25:44.662Z,61.53
2023-06-04T07:26:47.328Z,60.18
2023-06-04T07:27:52.244Z,61.01
2023-06-04T07:28:54.888Z,60.95
2023-06-04T07:29:57.598Z,61.27
2023-06-04T07:31:00.259Z,61.08
2023-06-04T07:32:02.872Z,60.53
2023-06-04T07:33:05.719Z,60.50
2023-06-04T07:34:08.342Z,60.37
2023-06-04T07:35:11.166Z,60.38
2023-06-04T07:36:17.668Z,60.34
2023-06-04T07:37:20.295Z,59.61
2023-06-04T07:38:22.894Z,60.31
2023-06-04T07:39:26.676Z,60.59
2023-06-04T07:40:29.595Z,60.97
2023-06-04T07:41:32.383Z,61.24
2023-06-04T07:42:35.087Z,62.10
2023-06-04T07:43:38.636Z,61.39
2023-06-04T07:44:41.243Z,61.99
2023-06-04T07:45:43.918Z,62.08
2023-06-04T07:46:46.543Z,62.76
2023-06-04T07:47:49.326Z,61.78
2023-06-04T07:48:52.007Z,61.54
2023-06-04T07:50:02.598Z,62.06
2023-06-04T07:51:06.745Z,63.21
2023-06-04T07:52:09.763Z,63.91
2023-06-04T07:53:12.394Z,62.84
2023-06-04T07:54:15.751Z,63.01
2023-06-04T07:55:18.597Z,63.20
2023-06-04T07:56:21.305Z,64.03
2023-06-04T07:57:23.922Z,64.85
2023-06-04T07:58:26.967Z,63.45
2023-06-04T07:59:31.025Z,62.80
2023-06-04T08:00:33.757Z,62.73
2023-06-04T08:01:36.398Z,63.19
2023-06-04T08:02:39.142Z,63.56
2023-06-04T08:03:43.392Z,63.25
2023-06-04T08:04:49.129Z,63.48
2023-06-04T08:05:51.843Z,63.24
2023-06-04T08:06:54.648Z,63.29
2023-06-04T08:07:57.271Z,63.01
2023-06-04T08:08:59.867Z,62.13
2023-06-04T08:10:02.629Z,62.81
2023-06-04T08:11:05.590Z,62.10
2023-06-04T08:12:10.611Z,62.57
2023-06-04T08:13:14.025Z,61.68
2023-06-04T08:14:16.907Z,61.79
2023-06-04T08:15:19.563Z,62.35
2023-06-04T08:16:22.235Z,61.25
2023-06-04T08:17:25.139Z,61.97
2023-06-04T08:18:27.880Z,61.97
2023-06-04T08:19:30.508Z,60.57
2023-06-04T08:20:33.166Z,61.41
2023-06-04T08:21:36.404Z,60.89
2023-06-04T08:22:39.294Z,60.96
2023-06-04T08:23:41.935Z,60.66
2023-06-04T08:24:45.004Z,60.52
2023-06-04T08:25:47.784Z,60.47
2023-06-04T08:26:51.808Z,61.79
2023-06-04T08:27:54.667Z,62.20
2023-06-04T08:28:57.581Z,62.61
2023-06-04T08:30:00.356Z,61.85
2023-06-04T08:31:03.057Z,63.86
2023-06-04T08:32:06.020Z,63.63
2023-06-04T08:33:09.874Z,62.90
2023-06-04T08:34:14.556Z,63.08
2023-06-04T08:35:17.227Z,62.85
2023-06-04T08:36:19.866Z,62.22
2023-06-04T08:37:22.577Z,61.82
2023-06-04T08:38:25.389Z,62.23
2023-06-04T08:39:28.099Z,62.50
2023-06-04T08:40:30.719Z,62.32
2023-06-04T08:41:40.063Z,62.31
2023-06-04T08:42:46.490Z,61.86
2023-06-04T08:43:50.891Z,62.01
2023-06-04T08:44:54.490Z,61.84
2023-06-04T08:46:08.385Z,66.05
2023-06-04T08:47:14.569Z,68.66
2023-06-04T08:48:20.079Z,70.02
2023-06-04T08:49:24.354Z,69.06
2023-06-04T08:50:27.626Z,65.71
2023-06-04T08:51:34.291Z,62.94
2023-06-04T08:52:37.351Z,62.35
2023-06-04T08:53:40.158Z,63.30
2023-06-04T08:54:43.038Z,63.46
2023-06-04T08:55:45.672Z,63.59
2023-06-04T08:56:50.489Z,62.92
2023-06-04T08:57:54.224Z,62.75
2023-06-04T08:59:04.427Z,63.02
2023-06-04T09:00:09.386Z,63.83
2023-06-04T09:01:13.329Z,63.07
2023-06-04T09:02:19.645Z,63.15
2023-06-04T09:03:26.019Z,63.08
2023-06-04T09:04:29.328Z,63.40
2023-06-04T09:05:32.485Z,64.13
2023-06-04T09:06:35.723Z,64.41
2023-06-04T09:07:40.769Z,64.44
2023-06-04T09:08:51.159Z,65.52
2023-06-04T09:10:11.918Z,65.04
2023-06-04T09:11:17.645Z,65.69
2023-06-04T09:12:26.411Z,64.55
2023-06-04T09:13:33.597Z,65.53
2023-06-04T09:14:36.264Z,66.20
2023-06-04T09:15:38.869Z,65.90
2023-06-04T09:16:48.751Z,65.24
2023-06-04T09:17:51.401Z,65.48
2023-06-04T09:18:55.042Z,65.17
2023-06-04T09:19:57.723Z,64.23
2023-06-04T09:21:07.889Z,64.07
2023-06-04T09:22:10.670Z,64.38
2023-06-04T09:23:19.442Z,65.07
2023-06-04T09:24:24.149Z,65.58
2023-06-04T09:25:28.550Z,65.67
2023-06-04T09:26:31.569Z,65.60
2023-06-04T09:27:41.544Z,65.72
2023-06-04T09:28:47.579Z,64.52
2023-06-04T09:30:00.063Z,65.98
2023-06-04T09:31:04.106Z,66.89
2023-06-04T09:32:07.009Z,67.57
2023-06-04T09:33:11.051Z,67.39
2023-06-04T09:34:13.818Z,67.99
2023-06-04T09:35:17.801Z,67.15
2023-06-04T09:36:20.429Z,67.00
2023-06-04T09:37:24.452Z,66.12
2023-06-04T09:38:37.119Z,66.45
2023-06-04T09:39:39.724Z,66.82
2023-06-04T09:40:42.850Z,65.90
2023-06-04T09:41:46.047Z,66.05
2023-06-04T09:42:56.239Z,65.84
2023-06-04T09:44:07.225Z,66.41
2023-06-04T09:45:10.618Z,66.12
2023-06-04T09:46:18.766Z,66.45
2023-06-04T09:47:21.453Z,67.75
2023-06-04T09:48:24.410Z,68.14
2023-06-04T09:49:27.489Z,68.17
2023-06-04T09:50:35.647Z,68.47
2023-06-04T09:51:50.085Z,68.13
2023-06-04T09:52:54.202Z,67.92
2023-06-04T09:53:58.350Z,67.86
2023-06-04T09:55:00.996Z,68.50
2023-06-04T09:56:05.454Z,67.24
2023-06-04T09:57:19.876Z,67.75
2023-06-04T09:58:24.850Z,67.22
2023-06-04T09:59:27.769Z,67.82
2023-06-04T10:00:30.691Z,68.04
2023-06-04T10:01:35.392Z,67.88
2023-06-04T10:02:38.311Z,67.63
2023-06-04T10:03:43.340Z,67.63
2023-06-04T10:04:56.003Z,67.68
2023-06-04T10:05:59.959Z,66.74
2023-06-04T10:07:04.730Z,67.37
2023-06-04T10:08:09.326Z,66.88
2023-06-04T10:09:15.595Z,66.38
2023-06-04T10:10:24.978Z,68.31
2023-06-04T10:11:37.841Z,68.27
2023-06-04T10:12:41.638Z,67.42
2023-06-04T10:13:54.817Z,68.53
2023-06-04T10:15:04.711Z,68.06
2023-06-04T10:16:15.388Z,67.05
2023-06-04T10:17:26.624Z,67.58
2023-06-04T10:18:30.488Z,67.38
2023-06-04T10:19:35.348Z,67.81
2023-06-04T10:20:38.278Z,66.78
2023-06-04T10:21:41.133Z,66.59
2023-06-04T10:22:44.603Z,67.83
2023-06-04T10:23:48.350Z,66.89
2023-06-04T10:24:51.269Z,66.95
2023-06-04T10:25:55.429Z,66.98
2023-06-04T10:27:00.869Z,66.76
2023-06-04T10:28:04.434Z,66.63
2023-06-04T10:29:07.984Z,66.91
2023-06-04T10:30:11.617Z,67.17
2023-06-04T10:31:14.705Z,67.42
2023-06-04T10:32:18.558Z,67.43
2023-06-04T10:33:25.669Z,67.42
2023-06-04T10:34:29.050Z,67.36
2023-06-04T10:35:35.549Z,67.55
2023-06-04T10:36:45.718Z,67.21
2023-06-04T10:37:49.650Z,67.17
2023-06-04T10:38:56.070Z,68.11
2023-06-04T10:40:00.232Z,71.28
2023-06-04T10:41:13.633Z,71.12
2023-06-04T10:42:18.053Z,72.93
2023-06-04T10:43:20.886Z,72.41
2023-06-04T10:44:23.593Z,72.32
2023-06-04T10:45:33.679Z,71.59
2023-06-04T10:46:43.334Z,72.48
2023-06-04T10:47:48.829Z,71.66
2023-06-04T10:48:52.816Z,71.83
2023-06-04T10:49:56.706Z,71.32
2023-06-04T10:50:59.534Z,70.57
2023-06-04T10:52:12.369Z,70.41
2023-06-04T10:53:15.085Z,71.48
2023-06-04T10:54:28.344Z,72.23
2023-06-04T10:55:32.252Z,70.65
2023-06-04T10:56:37.081Z,70.65
2023-06-04T10:57:39.717Z,70.09
2023-06-04T10:58:42.375Z,69.97
2023-06-04T10:59:57.722Z,70.02
2023-06-04T11:01:00.361Z,70.57
2023-06-04T11:02:10.313Z,69.17
2023-06-04T11:03:13.190Z,69.83
2023-06-04T11:04:26.482Z,69.55
2023-06-04T11:05:40.263Z,70.79
2023-06-04T11:06:42.968Z,69.49
2023-06-04T11:07:47.853Z,68.54
2023-06-04T11:08:51.145Z,68.72
2023-06-04T11:09:54.599Z,68.69
2023-06-04T11:10:57.322Z,69.28
2023-06-04T11:12:01.327Z,69.44
2023-06-04T11:13:05.340Z,68.04
2023-06-04T11:14:19.478Z,67.67
2023-06-04T11:15:22.193Z,68.00
2023-06-04T11:16:24.857Z,67.51
2023-06-04T11:17:27.747Z,67.70
2023-06-04T11:18:30.525Z,67.66
2023-06-04T11:19:39.725Z,66.09
2023-06-04T11:20:44.042Z,67.52
2023-06-04T11:21:46.781Z,67.51
2023-06-04T11:22:57.653Z,67.87
2023-06-04T11:24:01.196Z,66.99
2023-06-04T11:25:04.552Z,66.08
2023-06-04T11:26:08.119Z,65.59
2023-06-04T11:27:20.650Z,65.01
2023-06-04T11:28:31.165Z,64.68
2023-06-04T11:29:34.583Z,65.80
2023-06-04T11:30:37.233Z,63.69
2023-06-04T11:31:46.998Z,64.08
2023-06-04T11:32:50.261Z,64.69
2023-06-04T11:33:53.007Z,64.52
2023-06-04T11:35:08.174Z,63.15
2023-06-04T11:36:11.022Z,63.62
2023-06-04T11:37:13.683Z,63.85
2023-06-04T11:38:16.437Z,63.01
2023-06-04T11:39:19.031Z,62.60
2023-06-04T11:40:21.899Z,62.58
2023-06-04T11:41:25.312Z,62.39
2023-06-04T11:42:29.408Z,62.23
2023-06-04T11:43:32.041Z,62.01
2023-06-04T11:44:35.425Z,61.85
2023-06-04T11:45:38.705Z,61.84
2023-06-04T11:46:50.143Z,61.53
2023-06-04T11:47:57.429Z,61.96
2023-06-04T11:49:00.530Z,61.68
2023-06-04T11:50:03.200Z,61.24
2023-06-04T11:51:09.962Z,61.69
2023-06-04T11:52:13.952Z,61.30
2023-06-04T11:53:16.745Z,61.07
2023-06-04T11:54:21.191Z,60.87
2023-06-04T11:55:24.320Z,60.61
2023-06-04T11:56:30.207Z,61.56
2023-06-04T11:57:33.050Z,60.81
2023-06-04T11:58:36.023Z,61.02
2023-06-04T11:59:38.799Z,60.78
2023-06-04T12:00:41.935Z,60.96
2023-06-04T12:01:45.679Z,59.99
2023-06-04T12:02:56.486Z,60.13
2023-06-04T12:03:59.218Z,59.85
2023-06-04T12:05:16.133Z,59.74
2023-06-04T12:06:21.707Z,59.81
2023-06-04T12:07:25.840Z,59.50
2023-06-04T12:08:28.441Z,59.24
2023-06-04T12:09:34.606Z,59.75
2023-06-04T12:10:45.038Z,58.87
2023-06-04T12:11:47.672Z,58.81
2023-06-04T12:12:57.473Z,58.62
2023-06-04T12:14:07.425Z,58.88
2023-06-04T12:15:11.473Z,58.25
2023-06-04T12:16:16.950Z,58.66
2023-06-04T12:17:19.754Z,58.61
2023-06-04T12:18:27.349Z,56.96
2023-06-04T12:19:30.542Z,56.79
2023-06-04T12:20:37.782Z,57.38
2023-06-04T12:21:41.174Z,58.15
2023-06-04T12:22:49.960Z,57.49
2023-06-04T12:23:52.957Z,56.50
2023-06-04T12:24:57.743Z,57.11
2023-06-04T12:26:03.920Z,57.13
2023-06-04T12:27:09.829Z,57.45
2023-06-04T12:28:21.682Z,57.15
2023-06-04T12:29:24.317Z,57.12
2023-06-04T12:30:47.250Z,57.08
2023-06-04T12:31:49.957Z,57.11
2023-06-04T12:32:52.570Z,56.86
2023-06-04T12:33:55.206Z,56.35
2023-06-04T12:34:58.076Z,56.02
2023-06-04T12:36:00.715Z,56.28
2023-06-04T12:37:08.145Z,56.50
2023-06-04T12:38:11.065Z,55.92
2023-06-04T12:39:13.839Z,55.61
2023-06-04T12:40:16.544Z,56.67
2023-06-04T12:41:19.350Z,56.45
2023-06-04T12:42:22.137Z,55.56
2023-06-04T12:43:24.857Z,55.54
2023-06-04T12:44:27.570Z,55.39
2023-06-04T12:45:30.368Z,55.29
2023-06-04T12:46:33.095Z,54.84
2023-06-04T12:47:35.734Z,53.61
2023-06-04T12:48:38.422Z,54.65
2023-06-04T12:49:41.023Z,53.63
2023-06-04T12:50:43.658Z,53.68
2023-06-04T12:51:46.273Z,52.30
2023-06-04T12:52:48.866Z,53.02
2023-06-04T12:53:52.168Z,54.46
2023-06-04T12:54:54.767Z,53.81
2023-06-04T12:55:57.521Z,54.32
2023-06-04T12:57:00.704Z,53.86
2023-06-04T12:58:03.328Z,54.10
2023-06-04T12:59:05.954Z,53.73
2023-06-04T13:00:09.049Z,55.26
2023-06-04T13:01:13.054Z,53.56
2023-06-04T13:02:15.837Z,53.95
2023-06-04T13:03:18.901Z,52.82
2023-06-04T13:04:22.077Z,53.63
2023-06-04T13:05:24.706Z,52.31
2023-06-04T13:06:27.533Z,54.36
2023-06-04T13:07:30.167Z,53.09
2023-06-04T13:08:33.024Z,52.31
2023-06-04T13:09:36.647Z,53.11
2023-06-04T13:10:38.970Z,51.68
2023-06-04T13:11:42.136Z,51.18
2023-06-04T13:12:44.722Z,51.87
2023-06-04T13:13:47.301Z,52.49
2023-06-04T13:14:49.919Z,50.80
2023-06-04T13:15:52.588Z,50.36
2023-06-04T13:16:55.303Z,54.13
2023-06-04T13:17:57.950Z,48.81
2023-06-04T13:19:00.928Z,51.67
2023-06-04T13:20:03.554Z,52.78
2023-06-04T13:21:06.405Z,50.61
2023-06-04T13:22:10.935Z,53.85
2023-06-04T13:23:13.909Z,52.79
2023-06-04T13:24:17.182Z,50.09
2023-06-04T13:25:19.811Z,54.88
2023-06-04T13:26:23.478Z,50.81
2023-06-04T13:27:25.847Z,52.89
2023-06-04T13:28:28.709Z,49.80
2023-06-04T13:29:35.152Z,48.00
2023-06-04T13:30:41.544Z,50.40
2023-06-04T13:31:44.234Z,47.87
2023-06-04T13:32:46.937Z,49.74
2023-06-04T13:33:49.560Z,48.31
2023-06-04T13:34:52.160Z,49.63
2023-06-04T13:35:54.777Z,47.68
2023-06-04T13:36:57.438Z,53.24
2023-06-04T13:38:00.172Z,48.13
2023-06-04T13:39:04.297Z,46.32
2023-06-04T13:40:08.901Z,47.41
2023-06-04T13:41:11.732Z,46.10
2023-06-04T13:42:14.360Z,47.36
2023-06-04T13:43:17.222Z,46.00
2023-06-04T13:44:20.674Z,47.75
2023-06-04T13:45:23.297Z,47.86